createdAt,value
2019-05-20T00:01:27.285Z,7.03
2019-05-20T00:04:00.096Z,6.97
2019-05-20T00:06:29.833Z,6.93
2019-05-20T00:09:00.041Z,6.30
2019-05-20T00:11:30.900Z,6.43
2019-05-20T00:14:01.084Z,6.33
2019-05-20T00:16:31.391Z,6.60
2019-05-20T00:19:03.177Z,6.27
2019-05-20T00:21:34.153Z,7.17
2019-05-20T00:24:03.830Z,7.10
2019-05-20T00:26:34.202Z,6.40
2019-05-20T00:29:04.039Z,6.57
2019-05-20T00:31:34.421Z,6.53
2019-05-20T00:34:04.909Z,6.73
2019-05-20T00:36:35.401Z,6.70
2019-05-20T00:39:20.862Z,7.27
2019-05-20T00:41:51.441Z,6.70
2019-05-20T00:44:21.852Z,6.87
2019-05-20T00:46:51.485Z,7.20
2019-05-20T00:49:21.958Z,7.20
2019-05-20T00:51:51.713Z,7.17
2019-05-20T00:54:22.073Z,7.37
2019-05-20T00:56:53.175Z,6.43
2019-05-20T00:59:22.853Z,6.70
2019-05-20T01:01:53.983Z,7.30
2019-05-20T01:04:23.922Z,6.77
2019-05-20T01:06:53.861Z,6.63
2019-05-20T01:09:24.569Z,6.90
2019-05-20T01:11:55.045Z,6.67
2019-05-20T01:14:25.071Z,7.10
2019-05-20T01:16:55.136Z,6.37
2019-05-20T01:19:26.139Z,6.77
2019-05-20T01:21:57.621Z,6.33
2019-05-20T01:24:27.546Z,6.77
2019-05-20T01:26:57.891Z,6.77
2019-05-20T01:29:27.701Z,6.47
2019-05-20T01:31:59.149Z,6.73
2019-05-20T01:34:30.139Z,6.93
2019-05-20T01:37:00.673Z,6.80
2019-05-20T01:39:31.060Z,6.40
2019-05-20T01:42:00.873Z,6.37
2019-05-20T01:44:30.873Z,6.53
2019-05-20T01:47:00.834Z,6.57
2019-05-20T01:49:30.541Z,6.50
2019-05-20T01:52:00.548Z,6.40
2019-05-20T01:54:30.550Z,6.30
2019-05-20T01:57:01.309Z,6.53
2019-05-20T01:59:31.277Z,6.60
2019-05-20T02:02:01.743Z,6.70
2019-05-20T02:04:31.434Z,6.50
2019-05-20T02:07:02.329Z,6.33
2019-05-20T02:09:32.607Z,6.53
2019-05-20T02:12:02.723Z,6.87
2019-05-20T02:14:37.050Z,6.90
2019-05-20T02:17:08.385Z,6.33
2019-05-20T02:19:39.010Z,6.57
2019-05-20T02:22:08.914Z,6.37
2019-05-20T02:24:38.594Z,6.00
2019-05-20T02:27:09.699Z,6.27
2019-05-20T02:29:40.665Z,6.30
2019-05-20T02:32:10.598Z,6.30
2019-05-20T02:34:40.558Z,6.00
2019-05-20T02:37:11.042Z,6.53
2019-05-20T02:39:40.904Z,6.20
2019-05-20T02:42:11.022Z,5.87
2019-05-20T02:44:41.425Z,6.43
2019-05-20T02:47:12.038Z,6.43
2019-05-20T02:49:41.945Z,6.07
2019-05-20T02:52:13.817Z,6.60
2019-05-20T02:54:43.702Z,6.20
2019-05-20T02:57:14.165Z,6.17
2019-05-20T02:59:44.477Z,6.37
2019-05-20T03:02:14.145Z,5.90
2019-05-20T03:04:44.022Z,6.67
2019-05-20T03:07:14.619Z,6.53
2019-05-20T03:09:44.631Z,5.83
2019-05-20T03:12:15.034Z,6.00
2019-05-20T03:14:45.394Z,5.93
2019-05-20T03:17:15.841Z,5.90
2019-05-20T03:19:45.693Z,5.63
2019-05-20T03:22:15.496Z,6.27
2019-05-20T03:24:46.178Z,6.00
2019-05-20T03:27:16.636Z,5.87
2019-05-20T03:29:47.610Z,5.93
2019-05-20T03:32:18.154Z,6.10
2019-05-20T03:34:57.926Z,6.03
2019-05-20T03:37:20.761Z,6.57
2019-05-20T03:39:51.522Z,6.00
2019-05-20T03:42:22.082Z,6.03
2019-05-20T03:44:52.602Z,6.37
2019-05-20T03:47:23.150Z,5.37
2019-05-20T03:49:53.465Z,6.13
2019-05-20T03:52:23.929Z,6.30
2019-05-20T03:54:53.874Z,5.47
2019-05-20T03:57:24.391Z,5.97
2019-05-20T03:59:54.793Z,5.40
2019-05-20T04:02:26.038Z,5.57
2019-05-20T04:05:02.004Z,5.57
2019-05-20T04:07:27.611Z,5.43
2019-05-20T04:09:59.591Z,5.13
2019-05-20T04:12:29.538Z,5.80
2019-05-20T04:15:00.076Z,5.20
2019-05-20T04:17:29.806Z,5.13
2019-05-20T04:20:00.854Z,5.80
2019-05-20T04:22:30.639Z,5.60
2019-05-20T04:25:00.898Z,6.93
2019-05-20T04:27:31.235Z,5.87
2019-05-20T04:30:03.229Z,5.13
2019-05-20T04:32:33.758Z,5.47
2019-05-20T04:35:20.379Z,5.10
2019-05-20T04:37:36.056Z,4.80
2019-05-20T04:40:06.255Z,4.40
2019-05-20T04:42:35.986Z,5.03
2019-05-20T04:45:06.013Z,5.03
2019-05-20T04:47:37.350Z,4.67
2019-05-20T04:50:07.839Z,5.37
2019-05-20T04:52:37.557Z,4.63
2019-05-20T04:55:08.182Z,4.13
2019-05-20T04:57:37.886Z,4.40
2019-05-20T05:00:09.495Z,4.30
2019-05-20T05:02:43.445Z,4.00
2019-05-20T05:05:11.809Z,4.00
2019-05-20T05:07:42.781Z,3.80
2019-05-20T05:10:13.948Z,3.83
2019-05-20T05:12:46.749Z,3.97
2019-05-20T05:15:16.645Z,3.90
2019-05-20T05:17:46.837Z,3.40
2019-05-20T05:20:18.773Z,3.90
2019-05-20T05:22:49.316Z,3.37
2019-05-20T05:25:19.050Z,4.20
2019-05-20T05:27:51.169Z,3.83
2019-05-20T05:30:21.477Z,3.73
2019-05-20T05:32:51.403Z,3.70
2019-05-20T05:35:21.153Z,3.83
2019-05-20T05:37:51.638Z,3.80
2019-05-20T05:40:23.579Z,3.77
2019-05-20T05:42:53.501Z,4.33
2019-05-20T05:45:28.890Z,3.40
2019-05-20T05:47:57.149Z,3.73
2019-05-20T05:50:27.514Z,3.80
2019-05-20T05:52:57.578Z,4.00
2019-05-20T05:55:28.113Z,3.73
2019-05-20T05:57:58.118Z,3.80
2019-05-20T06:00:28.081Z,3.77
2019-05-20T06:02:58.573Z,3.60
2019-05-20T06:05:31.606Z,3.03
2019-05-20T06:08:01.209Z,3.37
2019-05-20T06:10:35.876Z,3.00
2019-05-20T06:13:06.048Z,3.23
2019-05-20T06:15:35.822Z,3.40
2019-05-20T06:18:06.185Z,2.90
2019-05-20T06:20:35.927Z,3.63
2019-05-20T06:23:05.817Z,3.30
2019-05-20T06:25:35.726Z,2.90
2019-05-20T06:28:05.774Z,3.40
2019-05-20T06:30:44.717Z,3.63
2019-05-20T06:33:15.094Z,3.07
2019-05-20T06:35:44.825Z,3.50
2019-05-20T06:38:33.009Z,3.60
2019-05-20T06:41:04.222Z,3.67
2019-05-20T06:43:34.114Z,3.30
2019-05-20T06:46:04.052Z,3.10
2019-05-20T06:48:33.982Z,3.07
2019-05-20T06:51:04.038Z,3.00
2019-05-20T06:53:33.715Z,3.00
2019-05-20T06:56:03.714Z,2.93
2019-05-20T06:58:34.074Z,3.00
2019-05-20T07:01:03.917Z,3.07
2019-05-20T07:03:34.695Z,3.00
2019-05-20T07:06:05.610Z,3.40
2019-05-20T07:08:38.102Z,3.10
2019-05-20T07:11:07.829Z,3.03
2019-05-20T07:13:38.095Z,3.17
2019-05-20T07:16:11.169Z,3.33
2019-05-20T07:18:40.986Z,2.93
2019-05-20T07:21:11.418Z,2.73
2019-05-20T07:23:42.032Z,2.80
2019-05-20T07:26:12.309Z,2.80
2019-05-20T07:28:41.990Z,2.70
2019-05-20T07:31:12.543Z,2.90
2019-05-20T07:33:43.118Z,2.53
2019-05-20T07:36:13.022Z,2.93
2019-05-20T07:38:43.197Z,2.70
2019-05-20T07:41:15.878Z,3.90
2019-05-20T07:43:47.953Z,3.07
2019-05-20T07:46:18.649Z,3.20
2019-05-20T07:48:49.953Z,3.10
2019-05-20T07:51:21.689Z,2.93
2019-05-20T07:53:51.639Z,3.10
2019-05-20T07:56:23.814Z,3.27
2019-05-20T07:58:55.237Z,2.77
2019-05-20T08:01:25.914Z,2.50
2019-05-20T08:03:56.346Z,2.60
2019-05-20T08:06:26.131Z,3.12
2019-05-20T08:08:56.249Z,3.37
2019-05-20T08:11:26.650Z,2.40
2019-05-20T08:13:56.934Z,2.50
2019-05-20T08:16:26.867Z,2.92
2019-05-20T08:18:57.354Z,2.45
2019-05-20T08:21:27.853Z,3.17
2019-05-20T08:23:58.841Z,2.70
2019-05-20T08:26:31.917Z,2.70
2019-05-20T08:29:02.689Z,3.90
2019-05-20T08:31:33.266Z,2.90
2019-05-20T08:34:03.177Z,2.85
2019-05-20T08:36:34.649Z,2.90
2019-05-20T08:39:06.521Z,2.97
2019-05-20T08:41:36.567Z,2.90
2019-05-20T08:44:06.469Z,3.00
2019-05-20T08:46:36.530Z,3.02
2019-05-20T08:49:11.060Z,2.98
2019-05-20T08:51:39.769Z,3.20
2019-05-20T08:54:09.929Z,2.83
2019-05-20T08:56:41.481Z,2.80
2019-05-20T08:59:12.017Z,3.27
2019-05-20T09:01:42.490Z,2.80
2019-05-20T09:04:12.228Z,3.33
2019-05-20T09:06:42.668Z,3.22
2019-05-20T09:09:13.653Z,2.80
2019-05-20T09:11:47.533Z,3.00
2019-05-20T09:14:15.617Z,2.50
2019-05-20T09:16:45.864Z,2.92
2019-05-20T09:19:15.633Z,2.70
2019-05-20T09:21:46.084Z,2.98
2019-05-20T09:24:18.891Z,2.77
2019-05-20T09:26:47.416Z,2.75
2019-05-20T09:29:17.945Z,2.77
2019-05-20T09:31:49.883Z,2.92
2019-05-20T09:34:20.069Z,2.77
2019-05-20T09:36:51.097Z,3.20
2019-05-20T09:39:21.817Z,2.77
2019-05-20T09:41:52.235Z,2.58
2019-05-20T09:44:22.171Z,2.98
2019-05-20T09:46:51.985Z,2.70
2019-05-20T09:49:22.363Z,2.75
2019-05-20T09:51:53.247Z,2.72
2019-05-20T09:54:23.073Z,2.80
2019-05-20T09:56:53.587Z,3.20
2019-05-20T09:59:24.217Z,3.47
2019-05-20T10:01:54.851Z,3.08
2019-05-20T10:04:25.669Z,2.67
2019-05-20T10:06:56.858Z,3.17
2019-05-20T10:09:27.353Z,3.10
2019-05-20T10:11:57.268Z,3.22
2019-05-20T10:14:27.606Z,3.90
2019-05-20T10:16:57.913Z,3.27
2019-05-20T10:19:27.826Z,3.00
2019-05-20T10:21:58.867Z,3.00
2019-05-20T10:24:29.328Z,3.30
2019-05-20T10:26:59.392Z,2.70
2019-05-20T10:29:30.010Z,3.02
2019-05-20T10:31:59.669Z,3.62
2019-05-20T10:34:29.449Z,3.40
2019-05-20T10:37:00.753Z,3.02
2019-05-20T10:39:30.760Z,3.22
2019-05-20T10:42:01.754Z,3.10
2019-05-20T10:44:31.566Z,3.60
2019-05-20T10:47:02.130Z,3.77
2019-05-20T10:49:31.857Z,3.40
2019-05-20T10:52:04.721Z,3.58
2019-05-20T10:54:35.102Z,3.25
2019-05-20T10:57:04.862Z,3.58
2019-05-20T10:59:35.289Z,3.10
2019-05-20T11:02:05.341Z,3.98
2019-05-20T11:04:35.693Z,3.50
2019-05-20T11:07:05.458Z,3.77
2019-05-20T11:09:35.355Z,3.70
2019-05-20T11:12:06.250Z,3.40
2019-05-20T11:14:36.578Z,3.30
2019-05-20T11:17:06.288Z,3.77
2019-05-20T11:19:37.310Z,3.60
2019-05-20T11:22:09.097Z,3.60
2019-05-20T11:24:39.845Z,3.70
2019-05-20T11:27:10.266Z,3.00
2019-05-20T11:29:40.687Z,3.20
2019-05-20T11:32:10.921Z,3.25
2019-05-20T11:34:41.370Z,3.08
2019-05-20T11:37:11.141Z,3.42
2019-05-20T11:39:40.996Z,3.17
2019-05-20T11:42:10.896Z,3.47
2019-05-20T11:44:40.585Z,4.10
2019-05-20T11:47:10.561Z,3.10
2019-05-20T11:49:40.517Z,3.47
2019-05-20T11:52:10.470Z,3.40
2019-05-20T11:54:40.985Z,3.47
2019-05-20T11:57:13.691Z,3.37
2019-05-20T11:59:46.441Z,3.50
2019-05-20T12:02:16.946Z,3.10
2019-05-20T12:04:46.764Z,3.45
2019-05-20T12:07:17.170Z,3.35
2019-05-20T12:09:49.884Z,3.77
2019-05-20T12:12:19.354Z,4.12
2019-05-20T12:14:49.861Z,3.37
2019-05-20T12:17:21.270Z,3.40
2019-05-20T12:19:53.496Z,3.20
2019-05-20T12:22:23.608Z,3.33
2019-05-20T12:24:53.914Z,3.37
2019-05-20T12:27:25.030Z,3.95
2019-05-20T12:29:55.461Z,3.70
2019-05-20T12:32:25.665Z,3.10
2019-05-20T12:34:55.973Z,3.45
2019-05-20T12:37:26.646Z,3.33
2019-05-20T12:40:06.386Z,3.45
2019-05-20T12:42:29.293Z,3.33
2019-05-20T12:45:00.196Z,3.27
2019-05-20T12:47:30.149Z,3.47
2019-05-20T12:50:00.280Z,3.45
2019-05-20T12:52:33.340Z,3.55
2019-05-20T12:55:09.154Z,3.60
2019-05-20T12:57:35.126Z,3.40
2019-05-20T13:00:05.434Z,3.33
2019-05-20T13:02:34.854Z,3.75
2019-05-20T13:05:05.809Z,3.22
2019-05-20T13:07:36.220Z,3.70
2019-05-20T13:10:26.840Z,3.27
2019-05-20T13:12:40.577Z,3.30
2019-05-20T13:15:11.210Z,3.55
2019-05-20T13:17:44.736Z,3.50
2019-05-20T13:20:13.951Z,3.17
2019-05-20T13:22:46.109Z,3.72
2019-05-20T13:25:16.040Z,3.65
2019-05-20T13:27:46.253Z,3.40
2019-05-20T13:30:16.945Z,3.37
2019-05-20T13:32:46.930Z,3.40
2019-05-20T13:35:16.988Z,3.50
2019-05-20T13:37:46.871Z,3.42
2019-05-20T13:40:16.983Z,3.80
2019-05-20T13:42:47.234Z,3.65
2019-05-20T13:45:18.017Z,3.40
2019-05-20T13:47:48.441Z,3.00
2019-05-20T13:50:18.455Z,3.60
2019-05-20T13:52:48.421Z,3.72
2019-05-20T13:55:18.741Z,3.45
2019-05-20T13:57:48.653Z,3.33
2019-05-20T14:00:19.596Z,3.55
2019-05-20T14:02:49.446Z,3.50
2019-05-20T14:05:20.771Z,3.60
2019-05-20T14:07:51.322Z,3.20
2019-05-20T14:10:21.014Z,3.70
2019-05-20T14:12:52.876Z,3.67
2019-05-20T14:15:22.663Z,3.22
2019-05-20T14:17:53.541Z,3.50
2019-05-20T14:20:25.381Z,3.55
2019-05-20T14:22:56.406Z,3.37
2019-05-20T14:25:28.910Z,3.60
2019-05-20T14:27:59.794Z,4.15
2019-05-20T14:30:30.158Z,4.05
2019-05-20T14:33:02.414Z,3.45
2019-05-20T14:35:33.342Z,3.47
2019-05-20T14:38:03.622Z,3.52
2019-05-20T14:40:33.405Z,3.55
2019-05-20T14:43:04.266Z,3.65
2019-05-20T14:45:35.318Z,3.08
2019-05-20T14:48:10.540Z,3.35
2019-05-20T14:50:40.481Z,4.03
2019-05-20T14:53:11.011Z,3.42
2019-05-20T14:55:42.789Z,3.90
2019-05-20T14:58:13.113Z,3.98
2019-05-20T15:00:42.713Z,3.22
2019-05-20T15:03:12.533Z,3.75
2019-05-20T15:05:42.655Z,3.87
2019-05-20T15:08:13.259Z,3.67
2019-05-20T15:10:43.190Z,3.58
2019-05-20T15:13:12.817Z,3.30
2019-05-20T15:15:42.789Z,3.55
2019-05-20T15:18:13.327Z,3.60
2019-05-20T15:20:43.958Z,3.60
2019-05-20T15:23:13.921Z,4.15
2019-05-20T15:25:44.380Z,3.40
2019-05-20T15:28:14.965Z,3.90
2019-05-20T15:30:44.923Z,3.47
2019-05-20T15:33:14.789Z,3.35
2019-05-20T15:35:44.578Z,3.35
2019-05-20T15:38:15.549Z,3.55
2019-05-20T15:40:46.047Z,3.60
2019-05-20T15:43:16.451Z,3.83
2019-05-20T15:45:47.679Z,3.72
2019-05-20T15:48:17.641Z,3.98
2019-05-20T15:50:47.221Z,3.67
2019-05-20T15:53:18.522Z,3.80
2019-05-20T15:55:48.925Z,3.65
2019-05-20T15:58:29.119Z,4.00
2019-05-20T16:00:59.593Z,4.15
2019-05-20T16:03:31.285Z,3.90
2019-05-20T16:06:00.970Z,3.98
2019-05-20T16:08:31.773Z,3.92
2019-05-20T16:11:01.479Z,4.15
2019-05-20T16:13:31.336Z,3.85
2019-05-20T16:16:13.196Z,3.87
2019-05-20T16:18:43.809Z,4.40
2019-05-20T16:21:13.796Z,3.72
2019-05-20T16:23:45.377Z,3.77
2019-05-20T16:26:15.350Z,4.05
2019-05-20T16:28:45.375Z,4.22
2019-05-20T16:31:15.292Z,4.72
2019-05-20T16:33:45.061Z,3.83
2019-05-20T16:36:14.997Z,3.90
2019-05-20T16:38:45.194Z,4.00
2019-05-20T16:41:17.625Z,4.10
2019-05-20T16:43:47.853Z,4.42
2019-05-20T16:46:18.185Z,4.40
2019-05-20T16:48:48.026Z,4.60
2019-05-20T16:51:17.917Z,4.65
2019-05-20T16:53:47.969Z,3.77
2019-05-20T16:56:19.069Z,4.33
2019-05-20T16:58:49.949Z,4.15
2019-05-20T17:01:19.741Z,4.53
2019-05-20T17:03:49.516Z,4.08
2019-05-20T17:06:19.477Z,4.25
2019-05-20T17:08:49.520Z,4.70
2019-05-20T17:11:19.469Z,4.60
2019-05-20T17:13:49.375Z,4.53
2019-05-20T17:16:19.163Z,4.90
2019-05-20T17:18:49.480Z,4.60
2019-05-20T17:21:19.399Z,4.10
2019-05-20T17:23:49.445Z,4.22
2019-05-20T17:26:20.661Z,4.78
2019-05-20T17:28:51.169Z,4.30
2019-05-20T17:31:21.697Z,4.53
2019-05-20T17:33:52.541Z,4.78
2019-05-20T17:36:23.482Z,4.92
2019-05-20T17:38:53.121Z,4.47
2019-05-20T17:41:22.861Z,4.92
2019-05-20T17:43:52.641Z,4.80
2019-05-20T17:46:23.323Z,5.03
2019-05-20T17:48:53.945Z,5.10
2019-05-20T17:51:24.360Z,5.12
2019-05-20T17:53:57.543Z,4.65
2019-05-20T17:56:27.263Z,4.78
2019-05-20T17:58:57.085Z,4.85
2019-05-20T18:01:27.697Z,5.15
2019-05-20T18:03:59.803Z,4.70
2019-05-20T18:06:30.790Z,4.40
2019-05-20T18:09:03.386Z,5.30
2019-05-20T18:11:35.449Z,4.78
2019-05-20T18:14:06.457Z,5.05
2019-05-20T18:16:36.710Z,4.90
2019-05-20T18:19:06.518Z,4.53
2019-05-20T18:21:36.857Z,5.50
2019-05-20T18:24:07.173Z,4.45
2019-05-20T18:26:39.173Z,5.30
2019-05-20T18:29:10.326Z,4.75
2019-05-20T18:31:40.665Z,4.75
2019-05-20T18:34:10.506Z,4.58
2019-05-20T18:36:40.980Z,4.83
2019-05-20T18:39:11.582Z,5.00
2019-05-20T18:41:41.985Z,4.65
2019-05-20T18:44:13.392Z,4.92
2019-05-20T18:46:45.924Z,5.00
2019-05-20T18:49:16.923Z,4.90
2019-05-20T18:51:46.664Z,4.75
2019-05-20T18:54:16.773Z,4.85
2019-05-20T18:56:47.296Z,4.75
2019-05-20T18:59:17.122Z,4.87
2019-05-20T19:02:02.382Z,5.70
2019-05-20T19:04:18.969Z,5.00
2019-05-20T19:06:49.158Z,4.58
2019-05-20T19:09:19.585Z,4.72
2019-05-20T19:11:50.010Z,5.42
2019-05-20T19:14:20.729Z,5.30
2019-05-20T19:16:53.120Z,5.03
2019-05-20T19:19:23.651Z,5.33
2019-05-20T19:21:54.365Z,5.20
2019-05-20T19:24:24.739Z,5.20
2019-05-20T19:26:54.757Z,4.85
2019-05-20T19:29:24.558Z,4.90
2019-05-20T19:32:01.844Z,5.65
2019-05-20T19:34:27.286Z,5.58
2019-05-20T19:36:57.177Z,5.60
2019-05-20T19:39:27.549Z,5.70
2019-05-20T19:41:57.381Z,5.60
2019-05-20T19:44:27.258Z,6.15
2019-05-20T19:46:57.004Z,5.92
2019-05-20T19:49:27.044Z,5.30
2019-05-20T19:51:57.011Z,5.97
2019-05-20T19:54:26.894Z,5.58
2019-05-20T19:56:57.913Z,5.90
2019-05-20T19:59:27.750Z,6.03
2019-05-20T20:01:58.229Z,5.75
2019-05-20T20:04:28.033Z,5.42
2019-05-20T20:07:00.564Z,5.95
2019-05-20T20:09:30.281Z,5.97
2019-05-20T20:12:04.145Z,5.92
2019-05-20T20:14:35.669Z,6.15
2019-05-20T20:17:05.405Z,6.57
2019-05-20T20:19:35.281Z,5.90
2019-05-20T20:22:05.140Z,6.37
2019-05-20T20:24:36.235Z,5.87
2019-05-20T20:27:06.096Z,6.30
2019-05-20T20:29:36.543Z,6.12
2019-05-20T20:32:07.017Z,6.40
2019-05-20T20:34:36.985Z,6.40
2019-05-20T20:37:07.813Z,6.67
2019-05-20T20:39:37.809Z,6.55
2019-05-20T20:42:07.409Z,6.30
2019-05-20T20:44:36.816Z,6.80
2019-05-20T20:47:07.242Z,6.72
2019-05-20T20:49:37.177Z,6.25
2019-05-20T20:52:06.890Z,6.15
2019-05-20T20:54:37.343Z,6.40
2019-05-20T20:57:10.511Z,6.40
2019-05-20T20:59:40.954Z,6.12
2019-05-20T21:02:11.268Z,6.40
2019-05-20T21:04:45.009Z,6.80
2019-05-20T21:07:15.513Z,6.62
2019-05-20T21:09:47.473Z,7.92
2019-05-20T21:12:17.985Z,6.15
2019-05-20T21:14:48.197Z,6.42
2019-05-20T21:17:18.768Z,6.87
2019-05-20T21:19:48.658Z,7.40
2019-05-20T21:22:18.459Z,6.72
2019-05-20T21:24:51.608Z,6.90
2019-05-20T21:27:22.042Z,6.60
2019-05-20T21:29:53.339Z,7.40
2019-05-20T21:32:23.325Z,6.97
2019-05-20T21:34:53.857Z,7.25
2019-05-20T21:37:23.774Z,7.17
2019-05-20T21:39:54.029Z,6.70
2019-05-20T21:42:25.402Z,7.20
2019-05-20T21:44:56.061Z,6.60
2019-05-20T21:47:25.831Z,7.58
2019-05-20T21:49:56.529Z,7.27
2019-05-20T21:52:28.157Z,6.77
2019-05-20T21:54:59.737Z,7.43
2019-05-20T21:57:29.377Z,6.60
2019-05-20T21:59:59.705Z,6.40
2019-05-20T22:02:29.587Z,6.95
2019-05-20T22:05:02.901Z,6.60
2019-05-20T22:07:32.663Z,6.47
2019-05-20T22:10:02.613Z,6.90
2019-05-20T22:12:32.422Z,6.97
2019-05-20T22:15:03.370Z,6.67
2019-05-20T22:17:33.097Z,6.93
2019-05-20T22:20:03.557Z,6.97
2019-05-20T22:22:47.445Z,7.13
2019-05-20T22:25:18.141Z,7.00
2019-05-20T22:27:47.853Z,6.83
2019-05-20T22:30:17.511Z,6.60
2019-05-20T22:32:50.549Z,7.37
2019-05-20T22:35:20.317Z,6.67
2019-05-20T22:37:50.476Z,6.87
2019-05-20T22:40:20.328Z,6.37
2019-05-20T22:42:50.069Z,6.17
2019-05-20T22:45:20.971Z,6.93
2019-05-20T22:47:51.605Z,6.40
2019-05-20T22:50:21.565Z,6.57
2019-05-20T22:52:52.055Z,6.60
2019-05-20T22:55:21.813Z,6.60
2019-05-20T22:57:52.309Z,6.70
2019-05-20T23:00:24.005Z,6.40
2019-05-20T23:02:53.961Z,6.90
2019-05-20T23:05:29.005Z,7.13
2019-05-20T23:07:59.516Z,6.73
2019-05-20T23:10:29.361Z,6.63
2019-05-20T23:12:59.023Z,6.40
2019-05-20T23:15:29.048Z,6.83
2019-05-20T23:17:59.373Z,5.73
2019-05-20T23:20:29.867Z,5.90
2019-05-20T23:23:00.274Z,6.73
2019-05-20T23:25:30.517Z,6.17
2019-05-20T23:28:00.856Z,6.30
2019-05-20T23:30:31.077Z,6.53
2019-05-20T23:33:01.341Z,5.77
2019-05-20T23:35:32.254Z,6.10
2019-05-20T23:38:03.302Z,6.20
2019-05-20T23:40:33.546Z,6.03
2019-05-20T23:43:04.602Z,6.70
2019-05-20T23:45:35.162Z,5.90
2019-05-20T23:48:06.506Z,5.87
2019-05-20T23:50:36.562Z,6.17
2019-05-20T23:53:06.729Z,6.83
2019-05-20T23:55:36.585Z,6.63
2019-05-20T23:58:06.937Z,6.27
